sensor_id;sensor_type;location;lat;lon;timestamp;pressure;altitude;pressure_sealevel;temperature;humidity
35419;BME280;21525;41.240;16.500;2022-09-09T00:00:19;101073.44;;;34.61;64.61
35419;BME280;21525;41.240;16.500;2022-09-09T00:02:52;101071.44;;;34.80;63.33
35419;BME280;21525;41.240;16.500;2022-09-09T00:05:39;101070.44;;;35.05;62.41
35419;BME280;21525;41.240;16.500;2022-09-09T00:08:15;101069.22;;;35.24;61.48
35419;BME280;21525;41.240;16.500;2022-09-09T00:10:43;101062.63;;;34.78;62.94
35419;BME280;21525;41.240;16.500;2022-09-09T00:13:34;101076.69;;;34.81;63.04
35419;BME280;21525;41.240;16.500;2022-09-09T00:16:11;101076.47;;;34.42;64.40
35419;BME280;21525;41.240;16.500;2022-09-09T00:21:34;101070.25;;;34.74;63.53
35419;BME280;21525;41.240;16.500;2022-09-09T00:24:09;101061.16;;;34.83;63.10
35419;BME280;21525;41.240;16.500;2022-09-09T00:26:48;101070.59;;;34.63;62.84
35419;BME280;21525;41.240;16.500;2022-09-09T00:32:15;101067.03;;;34.79;62.63
35419;BME280;21525;41.240;16.500;2022-09-09T00:34:58;101064.34;;;34.62;62.96
35419;BME280;21525;41.240;16.500;2022-09-09T00:37:26;101067.91;;;34.71;62.80
35419;BME280;21525;41.240;16.500;2022-09-09T00:39:56;101060.13;;;34.84;62.45
35419;BME280;21525;41.240;16.500;2022-09-09T00:42:25;101069.06;;;34.68;62.71
35419;BME280;21525;41.240;16.500;2022-09-09T00:44:53;101065.84;;;34.65;62.41
35419;BME280;21525;41.240;16.500;2022-09-09T00:47:40;101068.56;;;34.65;63.50
35419;BME280;21525;41.240;16.500;2022-09-09T00:50:25;101077.13;;;34.44;64.15
35419;BME280;21525;41.240;16.500;2022-09-09T00:56:12;101069.41;;;34.65;63.31
35419;BME280;21525;41.240;16.500;2022-09-09T00:58:38;101079.66;;;34.29;64.60
35419;BME280;21525;41.240;16.500;2022-09-09T01:01:10;101069.97;;;34.11;64.96
35419;BME280;21525;41.240;16.500;2022-09-09T01:03:43;101069.28;;;34.09;65.63
35419;BME280;21525;41.240;16.500;2022-09-09T01:14:24;101056.13;;;34.06;65.69
35419;BME280;21525;41.240;16.500;2022-09-09T01:17:01;101055.41;;;33.95;65.95
35419;BME280;21525;41.240;16.500;2022-09-09T01:19:52;101046.03;;;34.24;64.89
35419;BME280;21525;41.240;16.500;2022-09-09T01:28:11;101048.81;;;33.98;66.14
35419;BME280;21525;41.240;16.500;2022-09-09T01:30:41;101039.00;;;34.47;64.45
35419;BME280;21525;41.240;16.500;2022-09-09T01:33:16;101027.19;;;34.56;63.79
35419;BME280;21525;41.240;16.500;2022-09-09T01:36:03;101031.59;;;34.41;64.98
35419;BME280;21525;41.240;16.500;2022-09-09T01:38:39;101028.44;;;34.12;65.36
35419;BME280;21525;41.240;16.500;2022-09-09T01:41:06;101025.28;;;34.24;64.96
35419;BME280;21525;41.240;16.500;2022-09-09T01:43:45;101029.22;;;34.38;65.61
35419;BME280;21525;41.240;16.500;2022-09-09T01:46:11;101022.84;;;33.97;66.72
35419;BME280;21525;41.240;16.500;2022-09-09T01:48:40;101022.56;;;34.08;66.41
35419;BME280;21525;41.240;16.500;2022-09-09T01:51:09;101029.31;;;34.28;65.62
35419;BME280;21525;41.240;16.500;2022-09-09T01:53:40;101031.34;;;34.10;66.26
35419;BME280;21525;41.240;16.500;2022-09-09T01:56:32;101028.50;;;34.44;65.01
35419;BME280;21525;41.240;16.500;2022-09-09T02:02:08;101015.63;;;34.14;65.73
35419;BME280;21525;41.240;16.500;2022-09-09T02:07:37;101024.97;;;33.77;67.31
35419;BME280;21525;41.240;16.500;2022-09-09T02:10:20;101011.22;;;33.96;66.45
35419;BME280;21525;41.240;16.500;2022-09-09T02:13:11;101014.19;;;33.85;66.09
35419;BME280;21525;41.240;16.500;2022-09-09T02:18:59;101020.38;;;33.69;67.18
35419;BME280;21525;41.240;16.500;2022-09-09T02:21:32;101021.06;;;33.37;67.17
35419;BME280;21525;41.240;16.500;2022-09-09T02:24:02;101021.84;;;33.30;66.98
35419;BME280;21525;41.240;16.500;2022-09-09T02:26:32;101022.03;;;33.28;65.75
35419;BME280;21525;41.240;16.500;2022-09-09T02:29:08;101028.25;;;33.03;66.95
35419;BME280;21525;41.240;16.500;2022-09-09T02:31:36;101022.63;;;33.22;66.50
35419;BME280;21525;41.240;16.500;2022-09-09T02:34:08;101028.38;;;33.53;65.58
35419;BME280;21525;41.240;16.500;2022-09-09T02:36:38;101017.03;;;33.42;64.98
35419;BME280;21525;41.240;16.500;2022-09-09T02:39:07;101027.16;;;33.40;65.14
35419;BME280;21525;41.240;16.500;2022-09-09T02:41:37;101024.41;;;33.31;65.14
35419;BME280;21525;41.240;16.500;2022-09-09T02:44:15;101025.03;;;32.82;65.99
35419;BME280;21525;41.240;16.500;2022-09-09T02:52:14;101018.81;;;32.81;65.16
35419;BME280;21525;41.240;16.500;2022-09-09T02:54:44;101009.59;;;33.35;63.63
35419;BME280;21525;41.240;16.500;2022-09-09T02:57:24;101015.69;;;33.20;64.00
35419;BME280;21525;41.240;16.500;2022-09-09T02:59:57;101011.75;;;33.32;63.15
35419;BME280;21525;41.240;16.500;2022-09-09T03:02:23;101014.06;;;33.01;64.19
35419;BME280;21525;41.240;16.500;2022-09-09T03:04:57;101019.88;;;33.14;63.46
35419;BME280;21525;41.240;16.500;2022-09-09T03:07:23;101011.97;;;33.13;63.70
35419;BME280;21525;41.240;16.500;2022-09-09T03:09:51;101015.28;;;32.81;64.59
35419;BME280;21525;41.240;16.500;2022-09-09T03:12:22;101008.44;;;33.12;63.73
35419;BME280;21525;41.240;16.500;2022-09-09T03:14:47;101012.94;;;32.86;64.56
35419;BME280;21525;41.240;16.500;2022-09-09T03:17:13;101012.63;;;33.15;63.39
35419;BME280;21525;41.240;16.500;2022-09-09T03:19:46;101009.53;;;32.76;64.52
35419;BME280;21525;41.240;16.500;2022-09-09T03:22:15;101007.72;;;32.66;64.88
35419;BME280;21525;41.240;16.500;2022-09-09T03:24:43;101004.91;;;33.20;63.19
35419;BME280;21525;41.240;16.500;2022-09-09T03:27:09;101008.69;;;33.27;62.39
35419;BME280;21525;41.240;16.500;2022-09-09T03:29:36;101010.97;;;33.14;61.99
35419;BME280;21525;41.240;16.500;2022-09-09T03:32:06;101010.31;;;32.94;62.06
35419;BME280;21525;41.240;16.500;2022-09-09T03:34:32;101012.66;;;33.41;61.12
35419;BME280;21525;41.240;16.500;2022-09-09T03:36:58;101019.00;;;33.05;61.22
35419;BME280;21525;41.240;16.500;2022-09-09T03:39:25;101025.78;;;33.18;60.42
35419;BME280;21525;41.240;16.500;2022-09-09T03:41:50;101020.22;;;33.11;60.38
35419;BME280;21525;41.240;16.500;2022-09-09T03:44:17;101013.47;;;33.15;59.96
35419;BME280;21525;41.240;16.500;2022-09-09T03:46:43;101018.22;;;33.21;58.98
35419;BME280;21525;41.240;16.500;2022-09-09T03:49:09;101016.88;;;32.73;61.02
35419;BME280;21525;41.240;16.500;2022-09-09T03:51:35;101015.38;;;33.23;58.39
35419;BME280;21525;41.240;16.500;2022-09-09T03:54:02;101007.41;;;32.69;60.16
35419;BME280;21525;41.240;16.500;2022-09-09T03:56:31;101010.47;;;33.18;58.28
35419;BME280;21525;41.240;16.500;2022-09-09T03:58:58;101002.72;;;32.54;59.25
35419;BME280;21525;41.240;16.500;2022-09-09T04:01:24;101002.16;;;32.86;58.07
35419;BME280;21525;41.240;16.500;2022-09-09T04:03:50;101012.63;;;32.89;57.00
35419;BME280;21525;41.240;16.500;2022-09-09T04:06:16;101019.75;;;33.42;55.17
35419;BME280;21525;41.240;16.500;2022-09-09T04:08:45;101030.78;;;33.30;54.96
35419;BME280;21525;41.240;16.500;2022-09-09T04:11:15;101019.59;;;33.51;54.53
35419;BME280;21525;41.240;16.500;2022-09-09T04:13:42;101031.91;;;33.46;54.23
35419;BME280;21525;41.240;16.500;2022-09-09T04:16:11;101027.00;;;33.41;54.08
35419;BME280;21525;41.240;16.500;2022-09-09T04:18:39;101025.66;;;33.45;53.57
35419;BME280;21525;41.240;16.500;2022-09-09T04:21:06;101026.81;;;33.43;53.78
35419;BME280;21525;41.240;16.500;2022-09-09T04:23:34;101036.63;;;33.52;53.27
35419;BME280;21525;41.240;16.500;2022-09-09T04:26:02;101027.47;;;33.36;53.69
35419;BME280;21525;41.240;16.500;2022-09-09T04:28:33;101025.09;;;33.67;52.62
35419;BME280;21525;41.240;16.500;2022-09-09T04:31:28;101025.84;;;33.52;53.33
35419;BME280;21525;41.240;16.500;2022-09-09T04:33:56;101017.84;;;33.68;52.11
35419;BME280;21525;41.240;16.500;2022-09-09T04:36:22;101020.44;;;33.52;52.09
35419;BME280;21525;41.240;16.500;2022-09-09T04:38:50;101017.75;;;33.86;51.67
35419;BME280;21525;41.240;16.500;2022-09-09T04:41:16;101001.19;;;33.47;51.69
35419;BME280;21525;41.240;16.500;2022-09-09T04:43:44;101007.81;;;33.86;51.16
35419;BME280;21525;41.240;16.500;2022-09-09T04:46:11;101010.22;;;34.06;50.72
35419;BME280;21525;41.240;16.500;2022-09-09T04:48:37;101001.44;;;33.95;50.10
35419;BME280;21525;41.240;16.500;2022-09-09T04:51:13;101008.34;;;33.98;50.48
35419;BME280;21525;41.240;16.500;2022-09-09T04:53:39;101013.25;;;34.02;50.38
35419;BME280;21525;41.240;16.500;2022-09-09T04:56:13;101010.97;;;34.56;48.60
35419;BME280;21525;41.240;16.500;2022-09-09T04:58:44;101012.50;;;34.43;48.92
35419;BME280;21525;41.240;16.500;2022-09-09T05:01:14;101014.88;;;34.86;48.08
35419;BME280;21525;41.240;16.500;2022-09-09T05:03:43;101008.28;;;34.73;48.16
35419;BME280;21525;41.240;16.500;2022-09-09T05:06:14;101012.28;;;35.17;47.47
35419;BME280;21525;41.240;16.500;2022-09-09T05:08:43;101011.47;;;35.09;47.15
35419;BME280;21525;41.240;16.500;2022-09-09T05:11:24;101013.63;;;35.38;46.39
35419;BME280;21525;41.240;16.500;2022-09-09T05:13:53;101011.00;;;35.99;45.29
35419;BME280;21525;41.240;16.500;2022-09-09T05:16:20;101028.94;;;36.00;45.42
35419;BME280;21525;41.240;16.500;2022-09-09T05:18:46;101029.03;;;36.61;43.81
35419;BME280;21525;41.240;16.500;2022-09-09T05:21:14;101030.53;;;36.63;43.66
35419;BME280;21525;41.240;16.500;2022-09-09T05:23:41;101033.72;;;36.90;43.47
35419;BME280;21525;41.240;16.500;2022-09-09T05:26:11;101038.31;;;37.04;42.67
35419;BME280;21525;41.240;16.500;2022-09-09T05:28:37;101042.13;;;37.62;41.80
35419;BME280;21525;41.240;16.500;2022-09-09T05:31:06;101055.41;;;37.86;40.74
35419;BME280;21525;41.240;16.500;2022-09-09T05:33:35;101047.94;;;38.46;40.01
35419;BME280;21525;41.240;16.500;2022-09-09T05:36:23;101044.13;;;39.11;38.59
35419;BME280;21525;41.240;16.500;2022-09-09T05:38:53;101049.25;;;39.20;38.94
35419;BME280;21525;41.240;16.500;2022-09-09T05:41:20;101054.91;;;38.97;38.60
35419;BME280;21525;41.240;16.500;2022-09-09T05:43:46;101061.88;;;39.69;37.67
35419;BME280;21525;41.240;16.500;2022-09-09T05:46:18;101062.94;;;40.29;37.01
35419;BME280;21525;41.240;16.500;2022-09-09T05:48:47;101061.13;;;39.88;37.49
35419;BME280;21525;41.240;16.500;2022-09-09T05:51:17;101063.13;;;40.08;36.83
35419;BME280;21525;41.240;16.500;2022-09-09T05:53:44;101064.81;;;40.15;37.18
35419;BME280;21525;41.240;16.500;2022-09-09T05:56:14;101068.13;;;40.85;35.85
35419;BME280;21525;41.240;16.500;2022-09-09T05:58:42;101068.31;;;41.03;35.68
35419;BME280;21525;41.240;16.500;2022-09-09T06:01:17;101059.69;;;41.33;34.69
35419;BME280;21525;41.240;16.500;2022-09-09T06:03:45;101050.63;;;41.58;33.85
35419;BME280;21525;41.240;16.500;2022-09-09T06:06:17;101052.91;;;41.62;34.43
35419;BME280;21525;41.240;16.500;2022-09-09T06:08:44;101058.41;;;42.06;33.60
35419;BME280;21525;41.240;16.500;2022-09-09T06:13:44;101041.78;;;42.96;31.96
35419;BME280;21525;41.240;16.500;2022-09-09T06:16:14;101044.84;;;43.49;31.75
35419;BME280;21525;41.240;16.500;2022-09-09T06:18:42;101040.63;;;43.10;32.30
35419;BME280;21525;41.240;16.500;2022-09-09T06:21:19;101043.03;;;43.43;31.63
35419;BME280;21525;41.240;16.500;2022-09-09T06:23:47;101033.69;;;43.07;31.72
35419;BME280;21525;41.240;16.500;2022-09-09T06:28:45;101031.38;;;42.86;32.02
35419;BME280;21525;41.240;16.500;2022-09-09T06:31:12;101026.53;;;43.06;32.28
35419;BME280;21525;41.240;16.500;2022-09-09T06:33:41;101031.00;;;43.62;30.88
35419;BME280;21525;41.240;16.500;2022-09-09T06:36:12;101035.66;;;43.92;30.41
35419;BME280;21525;41.240;16.500;2022-09-09T06:38:41;101026.66;;;43.73;30.51
35419;BME280;21525;41.240;16.500;2022-09-09T06:41:09;101029.09;;;43.63;30.69
35419;BME280;21525;41.240;16.500;2022-09-09T06:43:36;101036.63;;;43.49;30.65
35419;BME280;21525;41.240;16.500;2022-09-09T06:46:12;101028.44;;;44.27;30.16
35419;BME280;21525;41.240;16.500;2022-09-09T06:48:42;101031.00;;;44.10;30.25
35419;BME280;21525;41.240;16.500;2022-09-09T06:51:13;101027.97;;;44.30;29.82
35419;BME280;21525;41.240;16.500;2022-09-09T06:53:42;101033.19;;;44.73;28.97
35419;BME280;21525;41.240;16.500;2022-09-09T06:58:42;101040.75;;;45.25;28.54
35419;BME280;21525;41.240;16.500;2022-09-09T07:01:15;101038.94;;;44.30;29.88
35419;BME280;21525;41.240;16.500;2022-09-09T07:03:42;101034.53;;;45.17;28.75
35419;BME280;21525;41.240;16.500;2022-09-09T07:06:15;101043.06;;;44.63;29.50
35419;BME280;21525;41.240;16.500;2022-09-09T07:08:55;101045.47;;;44.29;29.16
35419;BME280;21525;41.240;16.500;2022-09-09T07:11:26;101036.03;;;43.95;29.90
35419;BME280;21525;41.240;16.500;2022-09-09T07:13:53;101041.22;;;45.22;27.88
35419;BME280;21525;41.240;16.500;2022-09-09T07:16:21;101047.84;;;44.67;28.15
35419;BME280;21525;41.240;16.500;2022-09-09T07:18:49;101057.78;;;43.78;29.13
35419;BME280;21525;41.240;16.500;2022-09-09T07:21:16;101051.38;;;43.05;29.89
35419;BME280;21525;41.240;16.500;2022-09-09T07:23:43;101042.84;;;42.95;29.77
35419;BME280;21525;41.240;16.500;2022-09-09T07:26:11;101050.16;;;43.01;29.50
35419;BME280;21525;41.240;16.500;2022-09-09T07:28:38;101053.63;;;42.65;30.67
35419;BME280;21525;41.240;16.500;2022-09-09T07:31:05;101049.84;;;42.90;30.32
35419;BME280;21525;41.240;16.500;2022-09-09T07:33:34;101060.25;;;42.82;30.80
35419;BME280;21525;41.240;16.500;2022-09-09T07:36:06;101056.03;;;42.79;30.19
35419;BME280;21525;41.240;16.500;2022-09-09T07:38:44;101067.94;;;42.29;31.22
35419;BME280;21525;41.240;16.500;2022-09-09T07:41:15;101057.13;;;42.09;31.24
35419;BME280;21525;41.240;16.500;2022-09-09T07:43:45;101051.31;;;42.30;30.67
35419;BME280;21525;41.240;16.500;2022-09-09T07:46:12;101047.69;;;42.36;31.34
35419;BME280;21525;41.240;16.500;2022-09-09T07:48:46;101046.84;;;42.42;30.75
35419;BME280;21525;41.240;16.500;2022-09-09T07:51:17;101033.75;;;42.51;30.82
35419;BME280;21525;41.240;16.500;2022-09-09T07:53:44;101030.56;;;41.78;31.38
35419;BME280;21525;41.240;16.500;2022-09-09T07:56:14;101020.53;;;41.65;31.80
35419;BME280;21525;41.240;16.500;2022-09-09T07:58:45;101016.56;;;41.61;31.85
35419;BME280;21525;41.240;16.500;2022-09-09T08:01:15;100992.38;;;40.93;32.25
35419;BME280;21525;41.240;16.500;2022-09-09T08:03:42;100972.44;;;40.40;33.39
35419;BME280;21525;41.240;16.500;2022-09-09T08:06:10;100955.41;;;40.32;32.81
35419;BME280;21525;41.240;16.500;2022-09-09T08:08:38;100951.22;;;40.29;33.56
35419;BME280;21525;41.240;16.500;2022-09-09T08:13:35;100960.88;;;40.25;33.34
35419;BME280;21525;41.240;16.500;2022-09-09T08:16:10;100965.31;;;40.33;33.41
35419;BME280;21525;41.240;16.500;2022-09-09T08:18:37;100981.41;;;40.21;34.55
35419;BME280;21525;41.240;16.500;2022-09-09T08:21:18;100972.06;;;39.35;39.20
35419;BME280;21525;41.240;16.500;2022-09-09T08:23:45;100983.41;;;39.04;40.35
35419;BME280;21525;41.240;16.500;2022-09-09T08:26:17;101000.34;;;36.29;48.02
35419;BME280;21525;41.240;16.500;2022-09-09T08:28:47;101020.75;;;37.88;45.82
35419;BME280;21525;41.240;16.500;2022-09-09T08:31:16;101029.66;;;37.53;47.03
35419;BME280;21525;41.240;16.500;2022-09-09T08:33:43;101038.56;;;37.76;46.38
35419;BME280;21525;41.240;16.500;2022-09-09T08:36:13;101034.53;;;37.57;46.92
35419;BME280;21525;41.240;16.500;2022-09-09T08:38:42;101037.34;;;37.79;46.29
35419;BME280;21525;41.240;16.500;2022-09-09T08:43:34;101031.50;;;35.94;52.02
35419;BME280;21525;41.240;16.500;2022-09-09T08:46:11;101041.91;;;34.94;59.00
35419;BME280;21525;41.240;16.500;2022-09-09T08:51:39;101040.38;;;34.84;62.45
35419;BME280;21525;41.240;16.500;2022-09-09T08:54:05;101063.88;;;35.71;59.90
35419;BME280;21525;41.240;16.500;2022-09-09T08:56:32;101072.00;;;35.71;58.53
35419;BME280;21525;41.240;16.500;2022-09-09T08:59:03;101082.63;;;35.81;59.26
35419;BME280;21525;41.240;16.500;2022-09-09T09:08:04;101107.41;;;36.93;52.47
35419;BME280;21525;41.240;16.500;2022-09-09T09:10:54;101094.31;;;37.35;50.14
35419;BME280;21525;41.240;16.500;2022-09-09T09:14:14;101092.09;;;37.97;48.47
35419;BME280;21525;41.240;16.500;2022-09-09T09:16:38;101089.06;;;37.48;49.23
35419;BME280;21525;41.240;16.500;2022-09-09T09:19:10;101087.50;;;37.53;47.55
35419;BME280;21525;41.240;16.500;2022-09-09T09:21:42;101085.69;;;38.05;46.51
35419;BME280;21525;41.240;16.500;2022-09-09T09:24:19;101086.94;;;37.73;46.95
35419;BME280;21525;41.240;16.500;2022-09-09T09:26:46;101079.94;;;37.78;47.71
35419;BME280;21525;41.240;16.500;2022-09-09T09:29:18;101078.91;;;37.12;49.93
35419;BME280;21525;41.240;16.500;2022-09-09T09:31:48;101066.44;;;37.26;50.40
35419;BME280;21525;41.240;16.500;2022-09-09T09:34:17;101062.97;;;37.76;48.88
35419;BME280;21525;41.240;16.500;2022-09-09T09:36:51;101073.38;;;37.58;50.05
35419;BME280;21525;41.240;16.500;2022-09-09T09:39:30;101084.38;;;38.15;48.47
35419;BME280;21525;41.240;16.500;2022-09-09T09:42:09;101078.88;;;38.87;46.36
35419;BME280;21525;41.240;16.500;2022-09-09T09:44:36;101080.75;;;39.43;45.88
35419;BME280;21525;41.240;16.500;2022-09-09T09:49:37;101075.41;;;39.21;47.40
35419;BME280;21525;41.240;16.500;2022-09-09T09:52:05;101080.16;;;39.13;48.54
35419;BME280;21525;41.240;16.500;2022-09-09T09:54:39;101079.47;;;39.39;47.40
35419;BME280;21525;41.240;16.500;2022-09-09T09:57:12;101070.72;;;39.43;47.23
35419;BME280;21525;41.240;16.500;2022-09-09T09:59:42;101077.56;;;39.60;45.36
35419;BME280;21525;41.240;16.500;2022-09-09T10:02:24;101064.66;;;39.13;45.82
35419;BME280;21525;41.240;16.500;2022-09-09T10:08:13;101070.59;;;39.23;47.52
35419;BME280;21525;41.240;16.500;2022-09-09T10:32:36;101077.53;;;38.19;53.49
35419;BME280;21525;41.240;16.500;2022-09-09T10:35:35;101066.34;;;38.65;50.75
35419;BME280;21525;41.240;16.500;2022-09-09T10:43:53;101059.72;;;38.31;49.22
35419;BME280;21525;41.240;16.500;2022-09-09T10:55:02;101072.41;;;36.38;53.10
35419;BME280;21525;41.240;16.500;2022-09-09T10:57:39;101067.69;;;35.46;55.21
35419;BME280;21525;41.240;16.500;2022-09-09T11:00:17;101071.50;;;36.07;54.80
35419;BME280;21525;41.240;16.500;2022-09-09T11:02:48;101067.97;;;35.67;55.75
35419;BME280;21525;41.240;16.500;2022-09-09T11:05:24;101070.63;;;35.83;57.60
35419;BME280;21525;41.240;16.500;2022-09-09T11:08:00;101074.81;;;33.65;62.62
35419;BME280;21525;41.240;16.500;2022-09-09T11:10:41;101066.84;;;34.56;61.57
35419;BME280;21525;41.240;16.500;2022-09-09T11:16:29;101068.41;;;36.18;54.96
35419;BME280;21525;41.240;16.500;2022-09-09T11:19:41;101065.50;;;35.25;56.57
35419;BME280;21525;41.240;16.500;2022-09-09T11:25:00;101052.75;;;34.20;60.01
35419;BME280;21525;41.240;16.500;2022-09-09T11:27:37;101052.34;;;35.85;55.28
35419;BME280;21525;41.240;16.500;2022-09-09T11:30:17;101045.59;;;34.69;57.70
35419;BME280;21525;41.240;16.500;2022-09-09T11:41:06;101050.19;;;34.02;58.86
35419;BME280;21525;41.240;16.500;2022-09-09T11:43:47;101030.03;;;35.36;55.23
35419;BME280;21525;41.240;16.500;2022-09-09T11:46:16;101042.16;;;34.26;58.08
35419;BME280;21525;41.240;16.500;2022-09-09T11:48:45;101032.22;;;35.24;52.54
35419;BME280;21525;41.240;16.500;2022-09-09T11:51:24;101042.03;;;35.09;52.57
35419;BME280;21525;41.240;16.500;2022-09-09T11:53:55;101037.13;;;35.84;49.72
35419;BME280;21525;41.240;16.500;2022-09-09T11:56:25;101038.31;;;35.18;50.59
35419;BME280;21525;41.240;16.500;2022-09-09T11:59:25;101030.53;;;36.41;50.49
35419;BME280;21525;41.240;16.500;2022-09-09T12:02:00;101034.19;;;35.47;50.79
35419;BME280;21525;41.240;16.500;2022-09-09T12:06:56;101042.47;;;36.23;51.41
35419;BME280;21525;41.240;16.500;2022-09-09T12:12:28;101038.63;;;35.87;52.54
35419;BME280;21525;41.240;16.500;2022-09-09T12:15:00;101042.41;;;33.99;56.81
35419;BME280;21525;41.240;16.500;2022-09-09T12:17:29;101034.19;;;34.09;56.92
35419;BME280;21525;41.240;16.500;2022-09-09T12:28:05;101039.16;;;33.87;57.13
35419;BME280;21525;41.240;16.500;2022-09-09T12:31:12;101024.06;;;34.02;57.25
35419;BME280;21525;41.240;16.500;2022-09-09T12:33:44;101028.53;;;34.36;54.68
35419;BME280;21525;41.240;16.500;2022-09-09T12:36:38;101025.19;;;34.91;55.42
35419;BME280;21525;41.240;16.500;2022-09-09T12:39:21;101022.75;;;35.28;51.69
35419;BME280;21525;41.240;16.500;2022-09-09T12:41:52;101017.56;;;34.86;52.54
35419;BME280;21525;41.240;16.500;2022-09-09T12:44:26;101017.06;;;34.99;52.05
35419;BME280;21525;41.240;16.500;2022-09-09T12:46:57;101012.78;;;35.13;52.75
35419;BME280;21525;41.240;16.500;2022-09-09T12:49:32;101020.13;;;34.88;53.37
35419;BME280;21525;41.240;16.500;2022-09-09T12:54:33;101004.22;;;34.52;52.66
35419;BME280;21525;41.240;16.500;2022-09-09T12:57:00;101013.66;;;33.74;55.07
35419;BME280;21525;41.240;16.500;2022-09-09T12:59:36;101005.06;;;33.78;55.11
35419;BME280;21525;41.240;16.500;2022-09-09T13:02:16;101003.56;;;34.42;54.43
35419;BME280;21525;41.240;16.500;2022-09-09T13:04:43;101002.19;;;34.79;50.85
35419;BME280;21525;41.240;16.500;2022-09-09T13:07:13;100994.13;;;33.80;54.28
35419;BME280;21525;41.240;16.500;2022-09-09T13:09:39;100989.38;;;34.40;51.63
35419;BME280;21525;41.240;16.500;2022-09-09T13:12:15;100981.84;;;33.93;54.65
35419;BME280;21525;41.240;16.500;2022-09-09T13:14:44;100974.34;;;34.54;53.19
35419;BME280;21525;41.240;16.500;2022-09-09T13:17:21;100977.53;;;34.90;53.22
35419;BME280;21525;41.240;16.500;2022-09-09T13:19:48;100978.22;;;34.92;50.59
35419;BME280;21525;41.240;16.500;2022-09-09T13:22:38;100978.75;;;34.63;51.85
35419;BME280;21525;41.240;16.500;2022-09-09T13:27:38;100966.09;;;34.31;53.36
35419;BME280;21525;41.240;16.500;2022-09-09T13:30:23;100968.34;;;33.85;55.17
35419;BME280;21525;41.240;16.500;2022-09-09T13:35:35;100965.06;;;34.32;54.23
35419;BME280;21525;41.240;16.500;2022-09-09T13:38:15;100964.50;;;33.54;56.51
35419;BME280;21525;41.240;16.500;2022-09-09T13:41:11;100965.56;;;34.52;54.29
35419;BME280;21525;41.240;16.500;2022-09-09T13:43:47;100946.50;;;34.53;53.33
35419;BME280;21525;41.240;16.500;2022-09-09T13:46:36;100949.72;;;34.41;52.23
35419;BME280;21525;41.240;16.500;2022-09-09T13:49:22;100939.56;;;34.67;51.25
35419;BME280;21525;41.240;16.500;2022-09-09T13:51:50;100946.47;;;34.29;51.22
35419;BME280;21525;41.240;16.500;2022-09-09T13:54:20;100943.66;;;35.34;49.35
35419;BME280;21525;41.240;16.500;2022-09-09T13:56:46;100939.22;;;34.21;51.83
35419;BME280;21525;41.240;16.500;2022-09-09T13:59:14;100945.03;;;33.76;52.74
35419;BME280;21525;41.240;16.500;2022-09-09T14:01:41;100944.28;;;34.73;50.20
35419;BME280;21525;41.240;16.500;2022-09-09T14:04:08;100939.69;;;34.98;49.11
35419;BME280;21525;41.240;16.500;2022-09-09T14:06:35;100933.47;;;34.89;49.24
35419;BME280;21525;41.240;16.500;2022-09-09T14:09:06;100943.28;;;34.50;50.70
35419;BME280;21525;41.240;16.500;2022-09-09T14:11:32;100939.72;;;34.90;50.02
35419;BME280;21525;41.240;16.500;2022-09-09T14:13:58;100943.91;;;35.09;50.63
35419;BME280;21525;41.240;16.500;2022-09-09T14:16:26;100951.72;;;34.71;50.52
35419;BME280;21525;41.240;16.500;2022-09-09T14:18:53;100944.50;;;35.27;49.65
35419;BME280;21525;41.240;16.500;2022-09-09T14:21:22;100933.56;;;35.12;48.80
35419;BME280;21525;41.240;16.500;2022-09-09T14:23:49;100926.22;;;34.82;50.13
35419;BME280;21525;41.240;16.500;2022-09-09T14:26:15;100927.47;;;35.10;50.09
35419;BME280;21525;41.240;16.500;2022-09-09T14:28:41;100940.41;;;34.67;51.50
35419;BME280;21525;41.240;16.500;2022-09-09T14:31:07;100922.97;;;35.02;50.38
35419;BME280;21525;41.240;16.500;2022-09-09T14:33:33;100924.47;;;35.05;50.14
35419;BME280;21525;41.240;16.500;2022-09-09T14:36:00;100931.94;;;34.22;52.58
35419;BME280;21525;41.240;16.500;2022-09-09T14:38:35;100931.28;;;34.20;52.53
35419;BME280;21525;41.240;16.500;2022-09-09T14:41:05;100924.41;;;34.33;52.25
35419;BME280;21525;41.240;16.500;2022-09-09T14:43:31;100934.84;;;35.41;50.59
35419;BME280;21525;41.240;16.500;2022-09-09T14:46:07;100936.69;;;34.68;52.01
35419;BME280;21525;41.240;16.500;2022-09-09T14:48:33;100926.53;;;34.79;53.39
35419;BME280;21525;41.240;16.500;2022-09-09T14:51:13;100943.44;;;34.73;54.39
35419;BME280;21525;41.240;16.500;2022-09-09T14:53:40;100935.00;;;34.11;56.29
35419;BME280;21525;41.240;16.500;2022-09-09T14:56:08;100927.97;;;35.14;54.28
35419;BME280;21525;41.240;16.500;2022-09-09T14:58:35;100925.16;;;34.99;54.00
35419;BME280;21525;41.240;16.500;2022-09-09T15:01:05;100934.88;;;35.24;52.61
35419;BME280;21525;41.240;16.500;2022-09-09T15:03:32;100919.47;;;35.72;51.36
35419;BME280;21525;41.240;16.500;2022-09-09T15:05:58;100925.84;;;34.93;54.01
35419;BME280;21525;41.240;16.500;2022-09-09T15:08:25;100930.13;;;34.55;53.60
35419;BME280;21525;41.240;16.500;2022-09-09T15:10:59;100935.75;;;35.17;52.86
35419;BME280;21525;41.240;16.500;2022-09-09T15:13:25;100927.22;;;34.16;55.03
35419;BME280;21525;41.240;16.500;2022-09-09T15:15:51;100928.91;;;34.25;54.91
35419;BME280;21525;41.240;16.500;2022-09-09T15:18:17;100925.38;;;34.16;55.38
35419;BME280;21525;41.240;16.500;2022-09-09T15:20:46;100923.13;;;35.01;52.95